Time;durP1;ratioP1;P1;durP2;ratioP2;P2;SDS_P1;SDS_P2;PMS_P1;PMS_P2;Temp;Humidity;BMP_temperature;BMP_pressure;BME280_temperature;BME280_humidity;BME280_pressure;Samples;Min_cycle;Max_cycle;Signal;HPM_P1;HPM_P2
2022/09/10 00:01:14;;;;;;;5.18;4.78;;;;;;;-144.47;100.00;61586.06;5002288;28;20394;-77
2022/09/10 00:03:42;;;;;;;4.80;4.32;;;;;;;-144.47;100.00;61586.06;5005675;28;20040;-77
2022/09/10 00:06:08;;;;;;;4.78;4.22;;;;;;;-144.47;100.00;61586.06;5001258;28;20042;-77
2022/09/10 00:08:36;;;;;;;6.05;5.38;;;;;;;-144.47;100.00;61586.06;5003948;28;20538;-77
2022/09/10 00:11:06;;;;;;;6.55;4.93;;;;;;;-144.47;100.00;61586.06;5002631;28;20041;-76
2022/09/10 00:13:32;;;;;;;7.40;5.50;;;;;;;-144.47;100.00;61586.06;5018426;28;20512;-77
2022/09/10 00:16:01;;;;;;;7.70;4.85;;;;;;;-144.47;100.00;61586.06;5002351;28;20041;-76
2022/09/10 00:18:26;;;;;;;5.40;4.90;;;;;;;-144.47;100.00;61586.06;5002688;28;20519;-76
2022/09/10 00:20:54;;;;;;;6.43;5.00;;;;;;;-144.47;100.00;61586.06;5004426;28;20109;-76
2022/09/10 00:23:28;;;;;;;5.30;4.80;;;;;;;-144.47;100.00;61586.06;5003236;28;20041;-77
2022/09/10 00:25:55;;;;;;;6.43;4.57;;;;;;;-144.47;100.00;61586.06;4985786;28;20050;-77
2022/09/10 00:28:24;;;;;;;6.07;5.45;;;;;;;-144.47;100.00;61586.06;5003254;28;20493;-77
2022/09/10 00:30:51;;;;;;;5.70;5.13;;;;;;;-144.47;100.00;61586.06;4984418;28;20034;-77
2022/09/10 00:33:19;;;;;;;5.30;4.90;;;;;;;-144.47;100.00;61586.06;5003968;28;20112;-78
2022/09/10 00:35:45;;;;;;;8.93;4.93;;;;;;;-144.47;100.00;61586.06;5003656;28;20056;-77
2022/09/10 00:38:13;;;;;;;6.93;5.47;;;;;;;-144.47;100.00;61586.06;5000133;28;20076;-76
2022/09/10 00:40:40;;;;;;;5.82;5.25;;;;;;;-144.47;100.00;61586.06;5005070;28;20124;-76
2022/09/10 00:43:12;;;;;;;6.22;5.35;;;;;;;-144.47;100.00;61586.06;5000991;28;20023;-77
2022/09/10 00:45:38;;;;;;;7.03;5.10;;;;;;;-144.47;100.00;61586.06;4986929;28;20502;-77
2022/09/10 00:48:15;;;;;;;6.20;5.45;;;;;;;-144.47;100.00;61586.06;5002705;28;20033;-77
2022/09/10 00:50:44;;;;;;;5.32;4.88;;;;;;;-144.47;100.00;61586.06;5007021;28;20034;-77
2022/09/10 00:53:14;;;;;;;4.97;4.50;;;;;;;-144.47;100.00;61586.06;4999451;28;20038;-78
2022/09/10 00:55:45;;;;;;;5.97;5.43;;;;;;;-144.47;100.00;61586.06;4985723;28;20048;-76
2022/09/10 00:58:11;;;;;;;;;;;;;;;-144.47;100.00;61586.06;5017081;28;20042;-75
2022/09/10 01:00:39;;;;;;;5.75;3.70;;;;;;;-144.47;100.00;61586.06;4997691;28;19922;-77
2022/09/10 01:03:08;;;;;;;4.60;4.20;;;;;;;-144.47;100.00;61586.06;5004659;28;21040;-77
2022/09/10 01:05:33;;;;;;;5.57;3.80;;;;;;;-144.47;100.00;61586.06;5001503;28;20026;-77
2022/09/10 01:07:59;;;;;;;4.47;3.70;;;;;;;-144.47;100.00;61586.06;5017651;28;20529;-77
2022/09/10 01:10:35;;;;;;;7.10;4.28;;;;;;;-144.47;100.00;61586.06;4986838;28;20439;-77
2022/09/10 01:13:10;;;;;;;4.93;4.32;;;;;;;-144.47;100.00;61586.06;5005191;28;20034;-77
2022/09/10 01:15:44;;;;;;;5.88;5.15;;;;;;;-144.47;100.00;61586.06;5002383;28;20104;-77
2022/09/10 01:18:27;;;;;;;4.13;3.83;;;;;;;-144.47;100.00;61586.06;4986847;28;20041;-75
2022/09/10 01:21:03;;;;;;;5.20;4.00;;;;;;;187.31;100.00;61586.06;5019098;28;20033;-78
2022/09/10 01:23:57;;;;;;;6.60;4.85;;;;;;;-144.47;100.00;61586.06;5001237;28;20473;-76
2022/09/10 01:26:53;;;;;;;4.60;4.10;;;;;;;-144.47;100.00;61586.06;4986620;28;20038;-76
2022/09/10 01:29:48;;;;;;;4.60;4.13;;;;;;;-144.47;100.00;61586.06;4997769;28;20048;-76
2022/09/10 01:32:27;;;;;;;5.03;4.60;;;;;;;21.26;100.00;61586.06;5006193;28;20022;-76
2022/09/10 01:35:02;;;;;;;4.78;4.00;;;;;;;-144.47;100.00;61586.06;4985366;28;20041;-77
2022/09/10 01:37:29;;;;;;;5.13;4.63;;;;;;;187.31;100.00;61586.06;4983214;28;20037;-79
2022/09/10 01:39:58;;;;;;;5.20;4.63;;;;;;;-144.47;100.00;61586.06;5005034;28;20037;-78
2022/09/10 01:42:27;;;;;;;4.50;4.10;;;;;;;-144.47;100.00;61586.06;5015943;28;20067;-79
2022/09/10 01:44:58;;;;;;;4.78;3.70;;;;;;;-144.47;100.00;61586.06;5000439;28;20029;-79
2022/09/10 01:47:42;;;;;;;5.43;4.32;;;;;;;-144.47;100.00;61586.06;4984281;28;20041;-79
2022/09/10 01:50:11;;;;;;;4.35;4.05;;;;;;;-144.47;100.00;61586.06;5013642;28;20093;-79
2022/09/10 01:53:04;;;;;;;4.65;3.97;;;;;;;-144.47;100.00;61586.06;5003852;28;20044;-78
2022/09/10 01:56:06;;;;;;;4.32;3.97;;;;;;;-144.47;100.00;61586.06;5006694;28;20065;-77
2022/09/10 01:58:39;;;;;;;4.57;3.67;;;;;;;-144.47;100.00;61586.06;4970470;28;20597;-75
2022/09/10 02:01:27;;;;;;;4.25;3.85;;;;;;;20.63;100.00;61586.06;4984516;28;20448;-75
2022/09/10 02:04:00;;;;;;;4.07;3.75;;;;;;;-144.47;100.00;61586.06;4999131;28;20026;-75
2022/09/10 02:06:29;;;;;;;6.07;3.75;;;;;;;-144.47;100.00;61586.06;4999728;28;20022;-75
2022/09/10 02:08:58;;;;;;;5.07;3.90;;;;;;;-144.47;100.00;61586.06;4982706;28;20479;-75
2022/09/10 02:11:25;;;;;;;4.65;4.20;;;;;;;20.57;100.00;81692.00;4981824;28;20026;-77
2022/09/10 02:13:52;;;;;;;5.13;4.28;;;;;;;-144.47;100.00;61586.06;5014532;28;20478;-76
2022/09/10 02:16:39;;;;;;;4.50;4.20;;;;;;;-144.47;100.00;61586.06;4981349;28;20088;-77
2022/09/10 02:19:05;;;;;;;5.40;3.85;;;;;;;-144.47;100.00;61586.06;4983300;28;20056;-77
2022/09/10 02:21:32;;;;;;;4.20;3.80;;;;;;;-144.47;100.00;61586.06;4987026;28;20441;-77
2022/09/10 02:24:04;;;;;;;4.75;4.15;;;;;;;-144.47;100.00;61586.06;4982090;28;20571;-77
2022/09/10 02:26:36;;;;;;;7.68;4.18;;;;;;;20.49;100.00;61586.06;4999864;28;20492;-78
2022/09/10 02:29:05;;;;;;;6.28;4.45;;;;;;;-144.47;100.00;61586.06;4981447;28;20073;-76
2022/09/10 02:31:31;;;;;;;4.32;3.92;;;;;;;-144.47;100.00;61586.06;4982813;28;20137;-77
2022/09/10 02:33:57;;;;;;;4.05;3.75;;;;;;;-144.47;100.00;61586.06;4998383;28;20458;-75
2022/09/10 02:36:25;;;;;;;4.45;4.05;;;;;;;-144.47;100.00;61586.06;5014562;28;20026;-76
2022/09/10 02:38:52;;;;;;;4.50;3.55;;;;;;;-144.47;100.00;61586.06;5015501;28;20033;-76
2022/09/10 02:41:19;;;;;;;4.75;3.33;;;;;;;21.26;100.00;61586.06;4997983;28;20096;-76
2022/09/10 02:43:45;;;;;;;3.80;3.50;;;;;;;187.31;100.00;61586.06;5016302;28;20034;-76
2022/09/10 02:46:12;;;;;;;4.22;3.88;;;;;;;187.31;100.00;61586.06;5013148;28;20042;-76
2022/09/10 02:48:38;;;;;;;7.13;4.38;;;;;;;20.20;100.00;61586.06;5016518;28;20045;-77
2022/09/10 02:51:05;;;;;;;7.40;4.22;;;;;;;-144.47;100.00;61586.06;4983930;28;20175;-77
2022/09/10 02:53:30;;;;;;;6.53;4.43;;;;;;;-144.47;100.00;61586.06;4983535;28;20486;-77
2022/09/10 02:55:58;;;;;;;6.53;4.40;;;;;;;21.26;100.00;61586.06;4991679;28;20406;-77
2022/09/10 02:58:23;;;;;;;5.00;4.50;;;;;;;187.31;100.00;61586.06;4984291;28;20026;-76
2022/09/10 03:00:49;;;;;;;4.47;4.18;;;;;;;-144.47;100.00;61586.06;4982837;28;20121;-77
2022/09/10 03:03:16;;;;;;;4.85;4.38;;;;;;;21.26;100.00;61586.06;5013159;28;20034;-78
2022/09/10 03:05:42;;;;;;;4.18;3.88;;;;;;;21.26;100.00;61586.06;4983812;28;20514;-77
2022/09/10 03:08:09;;;;;;;4.10;3.80;;;;;;;21.26;100.00;61586.06;4987976;28;20033;-78
2022/09/10 03:10:37;;;;;;;3.80;3.50;;;;;;;21.26;100.00;61586.06;5013002;28;20030;-77
2022/09/10 03:13:04;;;;;;;4.68;4.10;;;;;;;21.26;100.00;61586.06;4999676;28;20033;-78
2022/09/10 03:15:32;;;;;;;5.20;4.00;;;;;;;-144.47;100.00;61586.06;4998159;28;20037;-74
2022/09/10 03:17:57;;;;;;;5.15;4.75;;;;;;;19.97;100.00;61586.06;5014747;28;20031;-77
2022/09/10 03:20:24;;;;;;;5.07;4.25;;;;;;;19.97;100.00;61586.06;5015050;28;20040;-77
2022/09/10 03:22:50;;;;;;;4.00;3.70;;;;;;;19.97;100.00;61586.06;5004526;28;20030;-77
2022/09/10 03:25:17;;;;;;;4.90;3.67;;;;;;;19.97;100.00;61586.06;4996366;28;20109;-76
2022/09/10 03:27:43;;;;;;;4.18;3.67;;;;;;;19.97;100.00;61586.06;4983642;28;20034;-77
2022/09/10 03:30:10;;;;;;;7.35;3.40;;;;;;;19.64;100.00;61586.06;5017454;28;20054;-77
2022/09/10 03:32:36;;;;;;;4.82;3.65;;;;;;;19.61;nan;99394.50;5004063;28;20434;-75
2022/09/10 03:35:03;;;;;;;4.03;3.70;;;;;;;19.63;nan;99408.50;5002138;28;20045;-76
2022/09/10 03:37:30;;;;;;;5.90;3.33;;;;;;;19.61;nan;99405.22;5001255;28;20042;-74
2022/09/10 03:39:56;;;;;;;4.03;3.10;;;;;;;19.60;nan;99403.56;4984892;28;20476;-73
2022/09/10 03:42:22;;;;;;;3.80;3.47;;;;;;;19.55;nan;99411.38;4984375;28;20368;-75
2022/09/10 03:44:47;;;;;;;6.65;3.42;;;;;;;-144.47;100.00;61586.06;4986052;28;20037;-74
2022/09/10 03:47:13;;;;;;;3.20;2.90;;;;;;;-144.47;100.00;61586.06;5015779;28;20093;-76
2022/09/10 03:49:38;;;;;;;4.43;3.60;;;;;;;-144.47;100.00;61586.06;5015948;28;20034;-76
2022/09/10 03:52:05;;;;;;;5.00;3.25;;;;;;;-144.47;100.00;61586.06;5021951;28;20157;-76
2022/09/10 03:54:34;;;;;;;4.22;3.30;;;;;;;-144.47;100.00;61586.06;4983449;28;20126;-75
2022/09/10 03:57:01;;;;;;;4.70;3.78;;;;;;;-144.47;100.00;61586.06;5002696;28;20062;-74
2022/09/10 03:59:28;;;;;;;5.05;3.47;;;;;;;-144.47;100.00;61586.06;4983992;28;20398;-76
2022/09/10 04:01:57;;;;;;;4.73;3.50;;;;;;;-144.47;100.00;61586.06;5000615;28;20053;-76
2022/09/10 04:04:22;;;;;;;4.30;3.72;;;;;;;-144.47;100.00;61586.06;4984650;28;20474;-75
2022/09/10 04:06:52;;;;;;;6.07;4.28;;;;;;;-144.47;100.00;61586.06;5016556;28;20042;-75
2022/09/10 04:09:18;;;;;;;4.70;4.07;;;;;;;-144.47;100.00;61586.06;5018017;28;20049;-76
2022/09/10 04:11:43;;;;;;;4.40;3.97;;;;;;;-144.47;100.00;61586.06;5015395;28;20054;-76
2022/09/10 04:14:09;;;;;;;5.60;4.97;;;;;;;-144.47;100.00;61586.06;5002349;28;20026;-75
2022/09/10 04:16:37;;;;;;;5.10;4.60;;;;;;;-144.47;100.00;61586.06;4982597;28;20030;-76
2022/09/10 04:19:04;;;;;;;5.20;4.63;;;;;;;-144.47;100.00;61586.06;5018137;28;20095;-75
2022/09/10 04:21:30;;;;;;;5.00;4.63;;;;;;;-144.47;100.00;61586.06;5006535;28;20029;-74
2022/09/10 04:23:56;;;;;;;4.57;4.25;;;;;;;-144.47;100.00;61586.06;4984189;28;20072;-75
2022/09/10 04:26:22;;;;;;;5.90;4.35;;;;;;;-144.47;100.00;61586.06;5015977;28;20031;-76
2022/09/10 04:28:48;;;;;;;5.93;5.35;;;;;;;-144.47;100.00;61586.06;4985637;28;20351;-75
2022/09/10 04:31:16;;;;;;;5.55;4.30;;;;;;;-144.47;100.00;61586.06;5015057;28;20406;-75
2022/09/10 04:33:41;;;;;;;4.65;4.35;;;;;;;19.97;100.00;61586.06;5003211;28;20033;-75
2022/09/10 04:36:07;;;;;;;6.45;4.55;;;;;;;-144.47;100.00;61586.06;4982862;28;20038;-75
2022/09/10 04:38:39;;;;;;;4.93;4.20;;;;;;;18.83;100.00;61586.06;5018018;28;20549;-74
2022/09/10 04:41:05;;;;;;;4.63;4.22;;;;;;;-144.47;100.00;61586.06;4982238;28;20039;-76
2022/09/10 04:43:31;;;;;;;8.05;4.85;;;;;;;-144.47;100.00;61586.06;4984450;28;20053;-75
2022/09/10 04:45:58;;;;;;;5.53;4.55;;;;;;;-144.47;100.00;61586.06;4983567;28;20036;-76
2022/09/10 04:48:24;;;;;;;4.97;4.57;;;;;;;18.94;100.00;61586.06;4999263;28;20044;-76
2022/09/10 04:50:52;;;;;;;4.90;4.50;;;;;;;-144.47;100.00;61586.06;4985270;28;20421;-76
2022/09/10 04:53:20;;;;;;;5.22;4.72;;;;;;;-144.47;100.00;61586.06;4985149;28;20533;-76
2022/09/10 04:55:46;;;;;;;6.93;4.43;;;;;;;-144.47;100.00;61586.06;4985006;28;20042;-77
2022/09/10 04:58:12;;;;;;;4.97;4.28;;;;;;;-144.47;100.00;61586.06;4999449;28;20030;-74
2022/09/10 05:00:40;;;;;;;7.50;4.97;;;;;;;-144.47;100.00;61586.06;4991522;28;20091;-75
2022/09/10 05:03:06;;;;;;;5.10;4.75;;;;;;;-144.47;100.00;61586.06;4991898;28;20030;-75
2022/09/10 05:05:33;;;;;;;6.78;5.07;;;;;;;-144.47;100.00;61586.06;4994996;28;20045;-76
2022/09/10 05:08:00;;;;;;;8.48;5.50;;;;;;;-144.47;100.00;61586.06;4994204;28;20041;-74
2022/09/10 05:10:26;;;;;;;9.95;5.90;;;;;;;-144.47;100.00;61586.06;5019480;28;20076;-75
2022/09/10 05:12:53;;;;;;;8.75;5.40;;;;;;;18.67;100.00;61586.06;4983026;28;20127;-75
2022/09/10 05:15:20;;;;;;;6.25;5.75;;;;;;;18.67;100.00;61586.06;4983892;28;20235;-75
2022/09/10 05:17:46;;;;;;;11.27;6.20;;;;;;;187.31;100.00;61586.06;4999544;28;20425;-77
2022/09/10 05:20:13;;;;;;;6.55;5.20;;;;;;;-144.47;100.00;61586.06;4984753;28;20038;-77
2022/09/10 05:22:46;;;;;;;9.95;5.63;;;;;;;-144.47;100.00;61586.06;4985535;28;20025;-76
2022/09/10 05:25:12;;;;;;;6.68;5.45;;;;;;;-144.47;100.00;61586.06;5010289;28;20104;-74
2022/09/10 05:27:37;;;;;;;7.40;6.60;;;;;;;-144.47;100.00;61586.06;5014243;28;20033;-76
2022/09/10 05:30:05;;;;;;;7.18;6.35;;;;;;;-144.47;100.00;61586.06;4980166;28;20035;-74
2022/09/10 05:32:31;;;;;;;7.00;6.30;;;;;;;-144.47;100.00;61586.06;5012917;28;20046;-74
2022/09/10 05:34:57;;;;;;;6.70;6.10;;;;;;;-144.47;100.00;61586.06;4980673;28;20023;-76
2022/09/10 05:37:23;;;;;;;8.23;6.45;;;;;;;18.15;100.00;61586.06;5011517;28;20099;-75
2022/09/10 05:39:49;;;;;;;7.78;6.97;;;;;;;18.67;100.00;61586.06;5013490;28;20121;-77
2022/09/10 05:42:14;;;;;;;8.50;6.28;;;;;;;18.67;100.00;61586.06;4979298;28;20026;-75
2022/09/10 05:44:40;;;;;;;11.05;7.30;;;;;;;-144.47;100.00;61586.06;5014336;28;20475;-76
2022/09/10 05:47:07;;;;;;;7.80;7.10;;;;;;;-144.47;100.00;61586.06;4979859;28;20112;-75
2022/09/10 05:49:33;;;;;;;9.10;8.20;;;;;;;-144.47;100.00;61586.06;4979973;28;20031;-76
2022/09/10 05:51:59;;;;;;;9.30;8.30;;;;;;;-144.47;100.00;61586.06;4985117;28;20050;-77
2022/09/10 05:54:25;;;;;;;8.35;7.55;;;;;;;-144.47;100.00;61586.06;5010673;28;20483;-75
2022/09/10 05:56:50;;;;;;;9.13;8.02;;;;;;;-144.47;100.00;61586.06;4979920;28;20041;-76
2022/09/10 05:59:16;;;;;;;8.52;7.72;;;;;;;-144.47;100.00;61586.06;4978822;28;20054;-77
2022/09/10 06:01:50;;;;;;;9.00;7.85;;;;;;;-144.47;100.00;61586.06;5013165;28;20053;-77
2022/09/10 06:04:17;;;;;;;8.07;6.60;;;;;;;-144.47;100.00;61586.06;4993640;28;20121;-76
2022/09/10 06:06:46;;;;;;;7.90;6.97;;;;;;;-144.47;100.00;61586.06;4980423;28;20406;-77
2022/09/10 06:09:13;;;;;;;8.77;7.43;;;;;;;-144.47;100.00;61586.06;4992918;28;20034;-76
2022/09/10 06:12:08;;;;;;;8.48;6.75;;;;;;;-144.47;100.00;61586.06;4977072;28;20042;-78
2022/09/10 06:14:34;;;;;;;8.25;6.70;;;;;;;-144.47;100.00;61586.06;4984285;28;20041;-77
2022/09/10 06:17:01;;;;;;;8.50;6.57;;;;;;;-144.47;100.00;61586.06;4978466;28;20114;-75
2022/09/10 06:19:29;;;;;;;7.40;6.28;;;;;;;-144.47;100.00;61586.06;5011670;28;20031;-76
2022/09/10 06:21:55;;;;;;;6.75;6.25;;;;;;;-144.47;100.00;61586.06;4978980;28;20026;-77
2022/09/10 06:24:22;;;;;;;6.68;6.07;;;;;;;184.71;100.00;61586.06;5009999;28;20414;-75
2022/09/10 06:26:50;;;;;;;9.38;6.97;;;;;;;-144.47;100.00;61586.06;4985719;28;20121;-76
2022/09/10 06:29:18;;;;;;;7.55;6.70;;;;;;;-144.47;100.00;61586.06;4988754;28;20056;-74
2022/09/10 06:31:45;;;;;;;8.50;7.03;;;;;;;-144.47;100.00;61586.06;4986563;28;20129;-73
2022/09/10 06:34:12;;;;;;;7.18;6.45;;;;;;;-144.47;100.00;61586.06;5017059;28;20102;-76
2022/09/10 06:36:37;;;;;;;6.15;5.53;;;;;;;19.97;100.00;61586.06;4986970;28;20491;-75
2022/09/10 06:39:03;;;;;;;8.52;6.15;;;;;;;19.97;100.00;61586.06;4977628;28;20038;-77
2022/09/10 06:41:37;;;;;;;8.55;7.55;;;;;;;19.97;100.00;61586.06;5012500;28;20038;-76
2022/09/10 06:44:22;;;;;;;8.77;6.90;;;;;;;19.97;100.00;61586.06;4984014;28;20066;-77
2022/09/10 06:46:55;;;;;;;7.43;6.70;;;;;;;19.97;100.00;61586.06;5011450;28;20035;-75
2022/09/10 06:49:22;;;;;;;8.98;7.70;;;;;;;19.97;100.00;61586.06;5010466;28;20026;-75
2022/09/10 06:51:49;;;;;;;8.82;7.00;;;;;;;19.97;100.00;61586.06;5012451;28;20394;-78
2022/09/10 06:54:18;;;;;;;8.52;7.63;;;;;;;19.97;100.00;61586.06;5009355;28;20118;-77
2022/09/10 06:56:45;;;;;;;8.65;7.70;;;;;;;19.97;100.00;61586.06;4982109;28;20443;-75
2022/09/10 06:59:13;;;;;;;10.25;8.13;;;;;;;19.97;100.00;61586.06;5009383;28;20055;-77
2022/09/10 07:01:43;;;;;;;10.60;7.68;;;;;;;19.97;100.00;61586.06;5013294;28;20031;-78
2022/09/10 07:04:09;;;;;;;8.43;7.63;;;;;;;19.97;100.00;61586.06;5010640;28;20062;-77
2022/09/10 07:06:36;;;;;;;9.45;7.93;;;;;;;19.97;100.00;61586.06;5016083;28;20037;-78
2022/09/10 07:09:08;;;;;;;9.38;8.38;;;;;;;-144.47;100.00;61586.06;5013252;28;20369;-77
2022/09/10 07:11:39;;;;;;;10.02;8.57;;;;;;;-144.47;100.00;61586.06;5017029;28;20415;-78
2022/09/10 07:14:11;;;;;;;9.52;8.55;;;;;;;-144.47;100.00;61586.06;5016753;28;20737;-78
2022/09/10 07:16:40;;;;;;;8.95;8.15;;;;;;;-144.47;100.00;61586.06;5013790;28;20131;-78
2022/09/10 07:19:06;;;;;;;8.93;8.10;;;;;;;-144.47;100.00;61586.06;5016313;28;20121;-78
2022/09/10 07:21:39;;;;;;;10.38;8.07;;;;;;;-144.47;100.00;61586.06;4981109;28;20468;-78
2022/09/10 07:24:10;;;;;;;11.98;8.43;;;;;;;19.38;100.00;61586.06;5016306;28;20039;-78
2022/09/10 07:26:37;;;;;;;9.77;8.70;;;;;;;19.97;100.00;61586.06;4983735;28;20109;-78
2022/09/10 07:29:03;;;;;;;9.05;7.78;;;;;;;-144.47;100.00;61586.06;4981143;28;20042;-78
2022/09/10 07:31:32;;;;;;;9.35;7.90;;;;;;;-144.47;100.00;61586.06;5014867;28;20030;-79
2022/09/10 07:34:01;;;;;;;9.68;8.50;;;;;;;-144.47;100.00;61586.06;4981968;28;20038;-78
2022/09/10 07:36:28;;;;;;;10.27;8.55;;;;;;;19.64;100.00;61586.06;4983287;28;20035;-78
2022/09/10 07:39:03;;;;;;;10.23;7.97;;;;;;;187.31;100.00;61586.06;4982246;28;20034;-79
2022/09/10 07:41:33;;;;;;;11.35;8.38;;;;;;;19.64;100.00;61586.06;4979795;28;20062;-79
2022/09/10 07:44:00;;;;;;;9.48;7.80;;;;;;;19.97;100.00;61586.06;5017115;28;20038;-77
2022/09/10 07:46:31;;;;;;;9.73;8.73;;;;;;;19.97;100.00;61586.06;5016494;28;20085;-77
2022/09/10 07:48:58;;;;;;;8.73;7.53;;;;;;;19.56;100.00;61586.06;4991881;28;20059;-78
2022/09/10 07:51:26;;;;;;;10.30;8.40;;;;;;;19.97;100.00;61586.06;5019792;28;20034;-77
2022/09/10 07:53:55;;;;;;;9.18;8.27;;;;;;;19.97;100.00;61586.06;4997000;28;20053;-79
2022/09/10 07:56:22;;;;;;;9.55;8.57;;;;;;;-144.47;100.00;61586.06;4991540;28;20057;-75
2022/09/10 07:58:48;;;;;;;11.05;9.00;;;;;;;19.72;100.00;61586.06;4971006;28;20030;-70
2022/09/10 08:01:14;;;;;;;10.40;9.32;;;;;;;19.79;100.00;61586.06;4988907;28;20041;-71
2022/09/10 08:03:41;;;;;;;10.20;9.20;;;;;;;-144.47;100.00;61586.06;5016515;28;20081;-70
2022/09/10 08:06:09;;;;;;;12.48;11.05;;;;;;;19.97;100.00;61586.06;4989898;28;20479;-70
2022/09/10 08:08:38;;;;;;;13.35;8.63;;;;;;;-144.47;100.00;61586.06;5001531;28;20034;-70
2022/09/10 08:11:16;;;;;;;21.08;11.85;;;;;;;20.61;100.00;61586.06;4301393;28;10000714;-71
2022/09/10 08:13:46;;;;;;;14.43;11.57;;;;;;;-144.47;100.00;61586.06;5001626;28;20057;-72
2022/09/10 08:16:15;;;;;;;18.58;10.05;;;;;;;20.24;100.00;61586.06;5012717;28;20037;-70
2022/09/10 08:18:42;;;;;;;16.65;11.35;;;;;;;-144.47;100.00;61586.06;4990365;28;20054;-70
2022/09/10 08:21:10;;;;;;;14.65;11.40;;;;;;;-144.47;100.00;61586.06;4986440;28;20117;-72
2022/09/10 08:23:40;;;;;;;12.18;10.52;;;;;;;-144.47;100.00;61586.06;4986662;28;20046;-71
2022/09/10 08:26:07;;;;;;;11.60;9.73;;;;;;;-144.47;100.00;61586.06;5015135;28;20053;-70
2022/09/10 08:28:34;;;;;;;15.20;11.90;;;;;;;-144.47;100.00;61586.06;4984996;28;20043;-72
2022/09/10 08:31:06;;;;;;;12.02;9.93;;;;;;;-144.47;100.00;61586.06;4987524;28;20038;-71
2022/09/10 08:33:39;;;;;;;12.50;9.35;;;;;;;-144.47;100.00;61586.06;4982079;28;20474;-72
2022/09/10 08:36:10;;;;;;;9.85;8.00;;;;;;;-144.47;100.00;61586.06;4984884;28;20039;-70
2022/09/10 08:38:39;;;;;;;10.88;8.45;;;;;;;-144.47;100.00;61586.06;5018775;28;20448;-73
2022/09/10 08:41:20;;;;;;;15.95;10.00;;;;;;;-144.47;100.00;61586.06;4991883;28;20035;-69
2022/09/10 08:44:07;;;;;;;11.05;9.57;;;;;;;-144.47;100.00;61586.06;4977312;28;20827;-69
2022/09/10 08:46:55;;;;;;;11.70;10.63;;;;;;;21.26;100.00;61586.06;4965689;28;20053;-71
2022/09/10 08:50:02;;;;;;;12.05;9.82;;;;;;;-144.47;100.00;61586.06;4978099;28;20038;-71
2022/09/10 08:52:41;;;;;;;11.38;10.18;;;;;;;21.26;100.00;61586.06;4957466;28;20507;-71
2022/09/10 08:55:24;;;;;;;11.50;9.27;;;;;;;21.26;100.00;61586.06;4975764;28;20045;-69
2022/09/10 08:58:13;;;;;;;12.32;9.35;;;;;;;21.26;100.00;61586.06;4974328;28;20545;-68
2022/09/10 09:00:43;;;;;;;13.18;8.90;;;;;;;62.74;100.00;61586.06;4981453;28;20060;-69
2022/09/10 09:03:15;;;;;;;12.18;9.27;;;;;;;104.25;100.00;61586.06;4974981;28;20117;-70
2022/09/10 09:05:46;;;;;;;12.85;10.68;;;;;;;104.25;100.00;61586.06;4976889;28;20038;-68
2022/09/10 09:08:18;;;;;;;10.02;9.05;;;;;;;104.25;100.00;61586.06;5005267;28;20031;-71
2022/09/10 09:11:12;;;;;;;14.57;11.80;;;;;;;104.25;100.00;61586.06;4903849;28;10000525;-71
2022/09/10 09:13:53;;;;;;;14.52;11.05;;;;;;;104.25;100.00;61586.06;4981887;28;20282;-70
2022/09/10 09:16:50;;;;;;;10.63;9.55;;;;;;;42.00;100.00;61586.06;4976452;28;20136;-70
2022/09/10 09:19:33;;;;;;;11.80;10.25;;;;;;;21.67;100.00;61586.06;4974294;28;20038;-69
2022/09/10 09:22:19;;;;;;;14.55;9.73;;;;;;;104.25;100.00;61586.06;4973003;28;20442;-70
2022/09/10 09:24:57;;;;;;;12.10;9.63;;;;;;;187.31;100.00;61586.06;4974641;28;20050;-71
2022/09/10 09:27:28;;;;;;;14.93;10.93;;;;;;;-144.47;100.00;61586.06;4973682;28;20039;-70
2022/09/10 09:30:03;;;;;;;15.43;11.68;;;;;;;-144.47;100.00;61586.06;4973147;28;20038;-71
2022/09/10 09:32:35;;;;;;;11.85;9.77;;;;;;;-144.47;100.00;61586.06;4975163;28;20472;-69
2022/09/10 09:35:21;;;;;;;14.02;9.32;;;;;;;-144.47;100.00;61586.06;4975995;28;20042;-69
2022/09/10 09:37:59;;;;;;;11.02;9.13;;;;;;;-144.47;100.00;61586.06;4984506;28;20072;-70
2022/09/10 09:40:36;;;;;;;15.35;11.13;;;;;;;-144.47;100.00;61586.06;4993198;28;20054;-71
2022/09/10 09:43:26;;;;;;;10.10;9.10;;;;;;;-144.47;100.00;61586.06;4974816;28;21046;-70
2022/09/10 09:45:52;;;;;;;10.32;8.50;;;;;;;-144.47;100.00;61586.06;4959896;28;20046;-68
2022/09/10 09:48:21;;;;;;;13.60;9.98;;;;;;;-144.47;100.00;61586.06;4977494;28;20045;-69
2022/09/10 09:50:51;;;;;;;8.52;7.78;;;;;;;-144.47;100.00;61586.06;4988284;28;20121;-71
2022/09/10 09:53:24;;;;;;;9.68;8.68;;;;;;;-144.47;100.00;61586.06;4989289;28;20037;-72
2022/09/10 09:56:18;;;;;;;14.27;10.32;;;;;;;-144.47;100.00;61586.06;4989411;28;20057;-72
2022/09/10 09:58:48;;;;;;;10.85;8.52;;;;;;;-144.47;100.00;61586.06;4987843;28;20049;-72
2022/09/10 10:01:38;;;;;;;9.52;7.32;;;;;;;-144.47;100.00;61586.06;4986216;28;20306;-71
2022/09/10 10:04:19;;;;;;;12.40;8.17;;;;;;;-144.47;100.00;61586.06;4989259;28;20097;-73
2022/09/10 10:06:51;;;;;;;11.88;10.40;;;;;;;-144.47;100.00;61586.06;4987954;28;20042;-74
2022/09/10 10:09:20;;;;;;;11.88;10.43;;;;;;;-144.47;100.00;61586.06;4988675;28;20045;-73
2022/09/10 10:11:53;;;;;;;13.73;11.10;;;;;;;-144.47;100.00;61586.06;4987586;28;20129;-72
2022/09/10 10:14:21;;;;;;;11.05;9.50;;;;;;;-144.47;100.00;61586.06;4987191;28;20097;-73
2022/09/10 10:16:50;;;;;;;14.27;10.00;;;;;;;-144.47;100.00;61586.06;4988901;28;20046;-73
2022/09/10 10:19:37;;;;;;;11.77;10.55;;;;;;;-144.47;100.00;61586.06;4988298;28;20110;-73
2022/09/10 10:22:15;;;;;;;12.77;9.27;;;;;;;-144.47;100.00;61586.06;4987728;28;20061;-72
2022/09/10 10:24:42;;;;;;;11.10;9.05;;;;;;;-144.47;100.00;61586.06;4993043;28;20058;-74
2022/09/10 10:27:18;;;;;;;9.15;7.03;;;;;;;62.74;100.00;61586.06;5004220;28;20067;-73
2022/09/10 10:30:13;;;;;;;10.70;4.93;;;;;;;-144.47;100.00;61586.06;5007179;28;20026;-73
2022/09/10 10:32:41;;;;;;;10.30;5.47;;;;;;;22.68;100.00;61586.06;5001480;28;20578;-73
2022/09/10 10:35:32;;;;;;;10.13;6.47;;;;;;;-144.47;100.00;61586.06;5008591;28;20395;-72
2022/09/10 10:38:25;;;;;;;6.57;5.90;;;;;;;-144.47;100.00;61586.06;5006746;28;20092;-73
2022/09/10 10:41:10;;;;;;;6.97;5.55;;;;;;;-144.47;100.00;61586.06;5011797;28;20038;-72
2022/09/10 10:43:44;;;;;;;7.10;5.35;;;;;;;-144.47;100.00;61586.06;5026883;28;20050;-76
2022/09/10 10:46:20;;;;;;;6.10;4.30;;;;;;;-144.47;100.00;61586.06;5012184;28;20034;-76
2022/09/10 10:49:04;;;;;;;6.05;5.45;;;;;;;-144.47;100.00;61586.06;5010903;28;20482;-74
2022/09/10 10:51:55;;;;;;;6.43;5.28;;;;;;;-144.47;100.00;61586.06;5011433;28;20034;-77
2022/09/10 10:54:36;;;;;;;9.00;5.20;;;;;;;62.74;100.00;61586.06;5011702;28;20472;-75
2022/09/10 10:57:34;;;;;;;9.82;4.63;;;;;;;62.74;100.00;61586.06;5008179;28;20050;-74
2022/09/10 11:00:18;;;;;;;7.15;4.53;;;;;;;62.74;100.00;61586.06;4962957;28;20490;-73
2022/09/10 11:02:51;;;;;;;7.78;4.13;;;;;;;31.63;100.00;61586.06;5008393;28;20463;-75
2022/09/10 11:05:30;;;;;;;8.10;4.38;;;;;;;-144.47;100.00;61586.06;5001559;28;20030;-78
2022/09/10 11:08:01;;;;;;;6.03;3.45;;;;;;;104.25;100.00;61586.06;4658992;28;10000238;-78
2022/09/10 11:10:32;;;;;;;;;;;;;;;62.74;100.00;61586.06;5002603;28;20106;-80
2022/09/10 11:13:23;;;;;;;7.75;4.95;;;;;;;104.25;100.00;61586.06;5003245;28;20024;-78
2022/09/10 11:15:54;;;;;;;5.68;4.03;;;;;;;25.15;100.00;61586.06;4984803;28;20116;-78
2022/09/10 11:18:32;;;;;;;6.00;4.45;;;;;;;25.15;100.00;61586.06;5001150;28;20061;-78
2022/09/10 11:21:14;;;;;;;6.70;4.32;;;;;;;104.25;100.00;61586.06;5003331;28;20034;-77
2022/09/10 11:23:51;;;;;;;6.68;4.10;;;;;;;187.31;100.00;61586.06;5005471;28;20038;-78
2022/09/10 11:26:30;;;;;;;4.43;3.55;;;;;;;24.34;100.00;61586.06;5005814;28;20041;-77
2022/09/10 11:29:21;;;;;;;6.53;3.63;;;;;;;-144.47;100.00;61586.06;5002065;28;20153;-77
2022/09/10 11:32:05;;;;;;;6.07;3.60;;;;;;;31.63;100.00;61586.06;5002239;28;20037;-75